sensor_id;sensor_type;location;lat;lon;timestamp;P1;durP1;ratioP1;P2;durP2;ratioP2
45382;SDS011;42455;51.660;5.824;2022-09-24T00:03:03;15.0;;;14.0;;
45382;SDS011;42455;51.660;5.824;2022-09-24T00:08:10;16.0;;;14.0;;
45382;SDS011;42455;51.660;5.824;2022-09-24T00:13:16;16.0;;;14.0;;
45382;SDS011;42455;51.660;5.824;2022-09-24T00:18:22;16.0;;;15.0;;
45382;SDS011;42455;51.660;5.824;2022-09-24T00:23:28;17.0;;;15.0;;
45382;SDS011;42455;51.660;5.824;2022-09-24T00:28:34;18.0;;;16.0;;
45382;SDS011;42455;51.660;5.824;2022-09-24T00:33:40;17.0;;;16.0;;
45382;SDS011;42455;51.660;5.824;2022-09-24T00:38:47;18.0;;;16.0;;
45382;SDS011;42455;51.660;5.824;2022-09-24T00:43:53;17.0;;;16.0;;
45382;SDS011;42455;51.660;5.824;2022-09-24T00:49:01;18.0;;;16.0;;
45382;SDS011;42455;51.660;5.824;2022-09-24T00:54:07;18.0;;;16.0;;
45382;SDS011;42455;51.660;5.824;2022-09-24T00:59:11;17.5;;;16.0;;
45382;SDS011;42455;51.660;5.824;2022-09-24T01:04:20;18.0;;;16.0;;
45382;SDS011;42455;51.660;5.824;2022-09-24T01:09:23;18.0;;;16.0;;
45382;SDS011;42455;51.660;5.824;2022-09-24T01:15:12;17.0;;;15.0;;
45382;SDS011;42455;51.660;5.824;2022-09-24T01:20:27;17.0;;;15.0;;
45382;SDS011;42455;51.660;5.824;2022-09-24T01:25:34;17.0;;;15.0;;
45382;SDS011;42455;51.660;5.824;2022-09-24T01:30:13;17.0;;;16.0;;
45382;SDS011;42455;51.660;5.824;2022-09-24T01:34:54;17.0;;;15.5;;
45382;SDS011;42455;51.660;5.824;2022-09-24T01:39:59;17.0;;;15.0;;
45382;SDS011;42455;51.660;5.824;2022-09-24T01:45:05;17.0;;;15.0;;
45382;SDS011;42455;51.660;5.824;2022-09-24T01:50:13;16.0;;;14.0;;
45382;SDS011;42455;51.660;5.824;2022-09-24T01:55:19;15.5;;;14.0;;
45382;SDS011;42455;51.660;5.824;2022-09-24T02:00:24;15.0;;;14.0;;
45382;SDS011;42455;51.660;5.824;2022-09-24T02:05:37;15.0;;;14.0;;
45382;SDS011;42455;51.660;5.824;2022-09-24T02:10:43;15.0;;;14.0;;
45382;SDS011;42455;51.660;5.824;2022-09-24T02:15:43;15.0;;;14.0;;
45382;SDS011;42455;51.660;5.824;2022-09-24T02:20:51;15.0;;;13.0;;
45382;SDS011;42455;51.660;5.824;2022-09-24T02:25:55;15.0;;;14.0;;
45382;SDS011;42455;51.660;5.824;2022-09-24T02:31:02;15.0;;;13.0;;
45382;SDS011;42455;51.660;5.824;2022-09-24T02:36:07;15.5;;;14.0;;
45382;SDS011;42455;51.660;5.824;2022-09-24T02:41:13;16.0;;;14.0;;
45382;SDS011;42455;51.660;5.824;2022-09-24T02:46:20;16.0;;;14.0;;
45382;SDS011;42455;51.660;5.824;2022-09-24T02:51:25;16.0;;;15.0;;
45382;SDS011;42455;51.660;5.824;2022-09-24T02:56:31;16.0;;;14.0;;
45382;SDS011;42455;51.660;5.824;2022-09-24T03:01:36;16.0;;;14.0;;
45382;SDS011;42455;51.660;5.824;2022-09-24T03:06:43;17.0;;;16.0;;
45382;SDS011;42455;51.660;5.824;2022-09-24T03:11:49;17.0;;;15.0;;
45382;SDS011;42455;51.660;5.824;2022-09-24T03:16:55;18.0;;;16.0;;
45382;SDS011;42455;51.660;5.824;2022-09-24T03:22:01;18.0;;;17.0;;
45382;SDS011;42455;51.660;5.824;2022-09-24T03:27:08;19.0;;;17.0;;
45382;SDS011;42455;51.660;5.824;2022-09-24T03:32:14;20.0;;;18.0;;
45382;SDS011;42455;51.660;5.824;2022-09-24T03:37:20;20.0;;;18.0;;
45382;SDS011;42455;51.660;5.824;2022-09-24T03:42:26;21.0;;;19.0;;
45382;SDS011;42455;51.660;5.824;2022-09-24T03:47:32;23.0;;;20.0;;
45382;SDS011;42455;51.660;5.824;2022-09-24T03:52:39;24.0;;;22.0;;
45382;SDS011;42455;51.660;5.824;2022-09-24T03:57:45;24.0;;;22.0;;
45382;SDS011;42455;51.660;5.824;2022-09-24T04:02:51;25.0;;;23.0;;
45382;SDS011;42455;51.660;5.824;2022-09-24T04:07:58;26.0;;;23.0;;
45382;SDS011;42455;51.660;5.824;2022-09-24T04:13:03;27.0;;;24.0;;
45382;SDS011;42455;51.660;5.824;2022-09-24T04:18:10;27.5;;;25.0;;
45382;SDS011;42455;51.660;5.824;2022-09-24T04:23:16;27.0;;;24.5;;
45382;SDS011;42455;51.660;5.824;2022-09-24T04:28:22;27.0;;;25.0;;
45382;SDS011;42455;51.660;5.824;2022-09-24T04:33:28;26.0;;;24.0;;
45382;SDS011;42455;51.660;5.824;2022-09-24T04:38:34;27.0;;;24.0;;
45382;SDS011;42455;51.660;5.824;2022-09-24T04:43:41;26.0;;;23.0;;
45382;SDS011;42455;51.660;5.824;2022-09-24T04:48:46;26.0;;;23.0;;
45382;SDS011;42455;51.660;5.824;2022-09-24T04:53:53;25.0;;;22.0;;
45382;SDS011;42455;51.660;5.824;2022-09-24T04:58:58;24.0;;;21.0;;
45382;SDS011;42455;51.660;5.824;2022-09-24T05:04:04;23.0;;;21.0;;
45382;SDS011;42455;51.660;5.824;2022-09-24T05:09:10;24.0;;;21.5;;
45382;SDS011;42455;51.660;5.824;2022-09-24T05:14:16;22.0;;;20.0;;
45382;SDS011;42455;51.660;5.824;2022-09-24T05:19:22;23.0;;;21.0;;
45382;SDS011;42455;51.660;5.824;2022-09-24T05:24:28;22.0;;;20.0;;
45382;SDS011;42455;51.660;5.824;2022-09-24T05:29:35;22.0;;;20.0;;
45382;SDS011;42455;51.660;5.824;2022-09-24T05:34:42;21.0;;;19.0;;
45382;SDS011;42455;51.660;5.824;2022-09-24T05:39:47;21.0;;;19.0;;
45382;SDS011;42455;51.660;5.824;2022-09-24T05:44:53;21.0;;;19.0;;
45382;SDS011;42455;51.660;5.824;2022-09-24T05:49:59;20.0;;;18.0;;
45382;SDS011;42455;51.660;5.824;2022-09-24T05:55:07;19.0;;;17.0;;
45382;SDS011;42455;51.660;5.824;2022-09-24T06:00:12;18.0;;;17.0;;
45382;SDS011;42455;51.660;5.824;2022-09-24T06:05:18;18.0;;;16.0;;
45382;SDS011;42455;51.660;5.824;2022-09-24T06:10:24;18.0;;;16.0;;
45382;SDS011;42455;51.660;5.824;2022-09-24T06:15:31;17.0;;;16.0;;
45382;SDS011;42455;51.660;5.824;2022-09-24T06:20:37;18.0;;;16.0;;
45382;SDS011;42455;51.660;5.824;2022-09-24T06:25:47;18.0;;;16.0;;
45382;SDS011;42455;51.660;5.824;2022-09-24T06:30:49;17.0;;;15.0;;
45382;SDS011;42455;51.660;5.824;2022-09-24T06:35:58;17.0;;;16.0;;
45382;SDS011;42455;51.660;5.824;2022-09-24T06:41:02;18.0;;;16.0;;
45382;SDS011;42455;51.660;5.824;2022-09-24T06:46:08;18.0;;;16.0;;
45382;SDS011;42455;51.660;5.824;2022-09-24T06:51:13;18.0;;;17.0;;
45382;SDS011;42455;51.660;5.824;2022-09-24T06:56:19;18.0;;;17.0;;
45382;SDS011;42455;51.660;5.824;2022-09-24T07:01:25;19.0;;;17.0;;
45382;SDS011;42455;51.660;5.824;2022-09-24T07:06:31;18.0;;;17.0;;
45382;SDS011;42455;51.660;5.824;2022-09-24T07:11:37;19.0;;;18.0;;
45382;SDS011;42455;51.660;5.824;2022-09-24T07:16:45;19.0;;;17.5;;
45382;SDS011;42455;51.660;5.824;2022-09-24T07:21:49;20.0;;;18.0;;
45382;SDS011;42455;51.660;5.824;2022-09-24T07:26:56;21.0;;;19.0;;
45382;SDS011;42455;51.660;5.824;2022-09-24T07:32:02;20.5;;;18.5;;
45382;SDS011;42455;51.660;5.824;2022-09-24T07:37:08;21.0;;;19.0;;
45382;SDS011;42455;51.660;5.824;2022-09-24T07:42:14;21.0;;;19.0;;
45382;SDS011;42455;51.660;5.824;2022-09-24T07:47:20;22.0;;;20.0;;
45382;SDS011;42455;51.660;5.824;2022-09-24T07:52:27;22.5;;;20.0;;
45382;SDS011;42455;51.660;5.824;2022-09-24T07:57:33;22.5;;;20.0;;
45382;SDS011;42455;51.660;5.824;2022-09-24T08:02:39;23.0;;;21.0;;
45382;SDS011;42455;51.660;5.824;2022-09-24T08:07:51;23.0;;;20.0;;
45382;SDS011;42455;51.660;5.824;2022-09-24T08:12:51;22.0;;;20.0;;
45382;SDS011;42455;51.660;5.824;2022-09-24T08:17:59;23.0;;;20.0;;
45382;SDS011;42455;51.660;5.824;2022-09-24T08:23:05;23.0;;;20.0;;
45382;SDS011;42455;51.660;5.824;2022-09-24T08:28:10;23.0;;;20.0;;
45382;SDS011;42455;51.660;5.824;2022-09-24T08:33:16;23.0;;;20.0;;
45382;SDS011;42455;51.660;5.824;2022-09-24T08:38:23;23.0;;;21.0;;
45382;SDS011;42455;51.660;5.824;2022-09-24T08:43:36;22.0;;;20.0;;
45382;SDS011;42455;51.660;5.824;2022-09-24T08:48:47;21.0;;;19.0;;
45382;SDS011;42455;51.660;5.824;2022-09-24T08:53:45;21.0;;;19.0;;
45382;SDS011;42455;51.660;5.824;2022-09-24T08:58:49;21.0;;;19.0;;
45382;SDS011;42455;51.660;5.824;2022-09-24T09:04:09;22.0;;;20.0;;
45382;SDS011;42455;51.660;5.824;2022-09-24T09:09:11;21.0;;;19.0;;
45382;SDS011;42455;51.660;5.824;2022-09-24T09:14:10;21.0;;;19.0;;
45382;SDS011;42455;51.660;5.824;2022-09-24T09:19:11;20.0;;;18.0;;
45382;SDS011;42455;51.660;5.824;2022-09-24T09:24:19;21.0;;;19.0;;
45382;SDS011;42455;51.660;5.824;2022-09-24T09:29:23;20.0;;;18.0;;
45382;SDS011;42455;51.660;5.824;2022-09-24T09:35:14;20.0;;;18.0;;
45382;SDS011;42455;51.660;5.824;2022-09-24T09:40:26;20.0;;;18.0;;
45382;SDS011;42455;51.660;5.824;2022-09-24T09:44:42;20.0;;;18.0;;
45382;SDS011;42455;51.660;5.824;2022-09-24T09:49:48;20.0;;;18.0;;
45382;SDS011;42455;51.660;5.824;2022-09-24T09:54:54;20.0;;;18.0;;
45382;SDS011;42455;51.660;5.824;2022-09-24T10:00:00;20.0;;;18.0;;
45382;SDS011;42455;51.660;5.824;2022-09-24T10:05:14;20.0;;;18.0;;
45382;SDS011;42455;51.660;5.824;2022-09-24T10:10:24;20.0;;;18.0;;
45382;SDS011;42455;51.660;5.824;2022-09-24T10:15:22;20.0;;;18.0;;
45382;SDS011;42455;51.660;5.824;2022-09-24T10:20:25;19.0;;;17.0;;
45382;SDS011;42455;51.660;5.824;2022-09-24T10:25:31;20.5;;;18.5;;
45382;SDS011;42455;51.660;5.824;2022-09-24T10:30:39;20.0;;;18.0;;
45382;SDS011;42455;51.660;5.824;2022-09-24T10:35:43;20.0;;;18.0;;
45382;SDS011;42455;51.660;5.824;2022-09-24T10:40:50;21.0;;;19.0;;
45382;SDS011;42455;51.660;5.824;2022-09-24T10:46:02;20.0;;;18.0;;
45382;SDS011;42455;51.660;5.824;2022-09-24T10:51:41;21.0;;;19.0;;
45382;SDS011;42455;51.660;5.824;2022-09-24T10:56:12;20.5;;;18.5;;
45382;SDS011;42455;51.660;5.824;2022-09-24T11:01:19;20.0;;;18.0;;
45382;SDS011;42455;51.660;5.824;2022-09-24T11:06:43;20.0;;;18.0;;
45382;SDS011;42455;51.660;5.824;2022-09-24T11:12:15;21.0;;;19.0;;
45382;SDS011;42455;51.660;5.824;2022-09-24T11:17:58;22.0;;;20.0;;
45382;SDS011;42455;51.660;5.824;2022-09-24T11:22:53;21.0;;;19.0;;
45382;SDS011;42455;51.660;5.824;2022-09-24T11:29:10;20.0;;;18.0;;
45382;SDS011;42455;51.660;5.824;2022-09-24T11:34:13;19.0;;;17.0;;
45382;SDS011;42455;51.660;5.824;2022-09-24T11:40:11;20.0;;;18.0;;
45382;SDS011;42455;51.660;5.824;2022-09-24T11:46:35;20.0;;;18.0;;
45382;SDS011;42455;51.660;5.824;2022-09-24T11:51:52;20.0;;;18.0;;
45382;SDS011;42455;51.660;5.824;2022-09-24T11:55:58;20.0;;;18.0;;
45382;SDS011;42455;51.660;5.824;2022-09-24T11:58:55;21.0;;;19.0;;
45382;SDS011;42455;51.660;5.824;2022-09-24T12:02:32;20.0;;;18.0;;
45382;SDS011;42455;51.660;5.824;2022-09-24T12:07:35;21.0;;;19.0;;
45382;SDS011;42455;51.660;5.824;2022-09-24T12:12:40;20.0;;;18.0;;
45382;SDS011;42455;51.660;5.824;2022-09-24T12:17:48;21.0;;;19.0;;
45382;SDS011;42455;51.660;5.824;2022-09-24T12:22:53;22.0;;;20.0;;
45382;SDS011;42455;51.660;5.824;2022-09-24T12:27:58;22.0;;;20.0;;
45382;SDS011;42455;51.660;5.824;2022-09-24T12:33:11;21.0;;;19.0;;
45382;SDS011;42455;51.660;5.824;2022-09-24T12:38:11;21.0;;;19.0;;
45382;SDS011;42455;51.660;5.824;2022-09-24T12:43:18;23.0;;;20.0;;
45382;SDS011;42455;51.660;5.824;2022-09-24T12:48:22;25.0;;;22.0;;
45382;SDS011;42455;51.660;5.824;2022-09-24T12:53:31;22.0;;;20.0;;
45382;SDS011;42455;51.660;5.824;2022-09-24T12:58:36;21.0;;;19.0;;
45382;SDS011;42455;51.660;5.824;2022-09-24T13:03:41;29.0;;;26.0;;
45382;SDS011;42455;51.660;5.824;2022-09-24T13:08:46;22.0;;;20.0;;
45382;SDS011;42455;51.660;5.824;2022-09-24T13:13:57;21.0;;;19.0;;
45382;SDS011;42455;51.660;5.824;2022-09-24T13:18:59;21.0;;;19.0;;
45382;SDS011;42455;51.660;5.824;2022-09-24T13:24:09;50.0;;;46.0;;
45382;SDS011;42455;51.660;5.824;2022-09-24T13:29:21;22.0;;;20.0;;
45382;SDS011;42455;51.660;5.824;2022-09-24T13:34:18;21.0;;;19.0;;
45382;SDS011;42455;51.660;5.824;2022-09-24T13:39:23;61.0;;;56.0;;
45382;SDS011;42455;51.660;5.824;2022-09-24T13:44:30;81.5;;;74.5;;
45382;SDS011;42455;51.660;5.824;2022-09-24T13:49:36;29.5;;;27.0;;
45382;SDS011;42455;51.660;5.824;2022-09-24T13:54:43;24.0;;;22.0;;
45382;SDS011;42455;51.660;5.824;2022-09-24T13:59:48;23.0;;;21.0;;
45382;SDS011;42455;51.660;5.824;2022-09-24T14:04:54;35.0;;;32.0;;
45382;SDS011;42455;51.660;5.824;2022-09-24T14:10:04;27.5;;;25.0;;
45382;SDS011;42455;51.660;5.824;2022-09-24T14:15:11;52.0;;;47.0;;
45382;SDS011;42455;51.660;5.824;2022-09-24T14:20:13;20.0;;;18.0;;
45382;SDS011;42455;51.660;5.824;2022-09-24T14:25:21;18.0;;;16.0;;
45382;SDS011;42455;51.660;5.824;2022-09-24T14:30:26;18.0;;;16.0;;
45382;SDS011;42455;51.660;5.824;2022-09-24T14:35:43;18.0;;;16.5;;
45382;SDS011;42455;51.660;5.824;2022-09-24T14:40:40;19.0;;;18.0;;
45382;SDS011;42455;51.660;5.824;2022-09-24T14:45:43;21.0;;;19.0;;
45382;SDS011;42455;51.660;5.824;2022-09-24T14:50:49;20.5;;;18.5;;
45382;SDS011;42455;51.660;5.824;2022-09-24T14:55:54;22.0;;;20.0;;
45382;SDS011;42455;51.660;5.824;2022-09-24T15:01:01;23.0;;;21.0;;
45382;SDS011;42455;51.660;5.824;2022-09-24T15:06:13;19.0;;;17.0;;
45382;SDS011;42455;51.660;5.824;2022-09-24T15:11:28;17.0;;;16.0;;
45382;SDS011;42455;51.660;5.824;2022-09-24T15:16:32;16.5;;;15.0;;
45382;SDS011;42455;51.660;5.824;2022-09-24T15:21:25;15.0;;;13.0;;
45382;SDS011;42455;51.660;5.824;2022-09-24T15:26:41;15.0;;;14.0;;
45382;SDS011;42455;51.660;5.824;2022-09-24T15:31:38;15.0;;;13.0;;
45382;SDS011;42455;51.660;5.824;2022-09-24T15:36:44;14.0;;;13.0;;
45382;SDS011;42455;51.660;5.824;2022-09-24T15:41:57;14.0;;;12.0;;
45382;SDS011;42455;51.660;5.824;2022-09-24T15:46:56;11.0;;;10.0;;
45382;SDS011;42455;51.660;5.824;2022-09-24T15:52:14;10.0;;;9.0;;
45382;SDS011;42455;51.660;5.824;2022-09-24T15:57:09;9.0;;;8.0;;
45382;SDS011;42455;51.660;5.824;2022-09-24T16:02:16;9.0;;;8.0;;
45382;SDS011;42455;51.660;5.824;2022-09-24T16:07:21;9.0;;;8.0;;
45382;SDS011;42455;51.660;5.824;2022-09-24T16:12:28;8.0;;;8.0;;
45382;SDS011;42455;51.660;5.824;2022-09-24T16:17:34;8.0;;;7.0;;
45382;SDS011;42455;51.660;5.824;2022-09-24T16:22:40;7.5;;;7.0;;
45382;SDS011;42455;51.660;5.824;2022-09-24T16:27:46;8.0;;;7.0;;
45382;SDS011;42455;51.660;5.824;2022-09-24T16:32:54;8.0;;;7.0;;
45382;SDS011;42455;51.660;5.824;2022-09-24T16:37:58;8.0;;;7.0;;
45382;SDS011;42455;51.660;5.824;2022-09-24T16:43:04;7.0;;;7.0;;
45382;SDS011;42455;51.660;5.824;2022-09-24T16:48:10;8.0;;;7.0;;
45382;SDS011;42455;51.660;5.824;2022-09-24T16:53:15;8.5;;;8.0;;
45382;SDS011;42455;51.660;5.824;2022-09-24T16:58:22;8.0;;;8.0;;
45382;SDS011;42455;51.660;5.824;2022-09-24T17:03:28;8.0;;;7.0;;
45382;SDS011;42455;51.660;5.824;2022-09-24T17:08:35;8.0;;;7.0;;
45382;SDS011;42455;51.660;5.824;2022-09-24T17:13:40;7.0;;;7.0;;
45382;SDS011;42455;51.660;5.824;2022-09-24T17:18:47;7.0;;;6.0;;
45382;SDS011;42455;51.660;5.824;2022-09-24T17:23:53;7.0;;;6.0;;
45382;SDS011;42455;51.660;5.824;2022-09-24T17:28:59;6.0;;;5.0;;
45382;SDS011;42455;51.660;5.824;2022-09-24T17:34:07;5.0;;;5.0;;
45382;SDS011;42455;51.660;5.824;2022-09-24T17:39:11;6.0;;;5.0;;
45382;SDS011;42455;51.660;5.824;2022-09-24T17:44:17;6.0;;;5.0;;
45382;SDS011;42455;51.660;5.824;2022-09-24T17:49:24;6.0;;;6.0;;
45382;SDS011;42455;51.660;5.824;2022-09-24T17:54:30;7.0;;;6.0;;
45382;SDS011;42455;51.660;5.824;2022-09-24T17:59:36;8.0;;;8.0;;
45382;SDS011;42455;51.660;5.824;2022-09-24T18:04:42;12.0;;;11.0;;
45382;SDS011;42455;51.660;5.824;2022-09-24T18:09:48;9.0;;;8.0;;
45382;SDS011;42455;51.660;5.824;2022-09-24T18:14:55;9.0;;;8.0;;
45382;SDS011;42455;51.660;5.824;2022-09-24T18:20:01;9.0;;;8.0;;
45382;SDS011;42455;51.660;5.824;2022-09-24T18:25:07;9.0;;;8.0;;
45382;SDS011;42455;51.660;5.824;2022-09-24T18:30:13;9.0;;;8.0;;
45382;SDS011;42455;51.660;5.824;2022-09-24T18:35:20;9.0;;;8.0;;
45382;SDS011;42455;51.660;5.824;2022-09-24T18:40:25;9.0;;;8.0;;
45382;SDS011;42455;51.660;5.824;2022-09-24T18:45:31;9.0;;;7.0;;
45382;SDS011;42455;51.660;5.824;2022-09-24T18:50:40;10.0;;;8.0;;
45382;SDS011;42455;51.660;5.824;2022-09-24T18:55:42;7.0;;;6.0;;
45382;SDS011;42455;51.660;5.824;2022-09-24T19:00:49;7.0;;;5.0;;
45382;SDS011;42455;51.660;5.824;2022-09-24T19:05:58;8.5;;;4.0;;
45382;SDS011;42455;51.660;5.824;2022-09-24T19:11:01;7.0;;;4.0;;
45382;SDS011;42455;51.660;5.824;2022-09-24T19:16:08;6.0;;;4.0;;
45382;SDS011;42455;51.660;5.824;2022-09-24T19:21:14;8.0;;;4.0;;
45382;SDS011;42455;51.660;5.824;2022-09-24T19:26:21;6.0;;;3.0;;
45382;SDS011;42455;51.660;5.824;2022-09-24T19:31:27;6.5;;;3.0;;
45382;SDS011;42455;51.660;5.824;2022-09-24T19:36:32;5.0;;;3.0;;
45382;SDS011;42455;51.660;5.824;2022-09-24T19:41:38;6.0;;;2.0;;
45382;SDS011;42455;51.660;5.824;2022-09-24T19:46:45;4.0;;;2.0;;
45382;SDS011;42455;51.660;5.824;2022-09-24T19:51:51;4.0;;;2.0;;
45382;SDS011;42455;51.660;5.824;2022-09-24T19:56:57;5.0;;;2.0;;
45382;SDS011;42455;51.660;5.824;2022-09-24T20:02:03;4.0;;;2.0;;
45382;SDS011;42455;51.660;5.824;2022-09-24T20:07:09;5.0;;;2.0;;
45382;SDS011;42455;51.660;5.824;2022-09-24T20:12:16;3.0;;;1.0;;
45382;SDS011;42455;51.660;5.824;2022-09-24T20:17:22;5.0;;;2.0;;
45382;SDS011;42455;51.660;5.824;2022-09-24T20:22:30;4.0;;;2.0;;
45382;SDS011;42455;51.660;5.824;2022-09-24T20:27:34;5.5;;;2.0;;
45382;SDS011;42455;51.660;5.824;2022-09-24T20:32:40;5.0;;;2.0;;
45382;SDS011;42455;51.660;5.824;2022-09-24T20:37:46;5.0;;;2.0;;
45382;SDS011;42455;51.660;5.824;2022-09-24T20:42:52;4.0;;;2.0;;
45382;SDS011;42455;51.660;5.824;2022-09-24T20:47:57;5.5;;;2.0;;
45382;SDS011;42455;51.660;5.824;2022-09-24T20:53:03;5.5;;;2.0;;
45382;SDS011;42455;51.660;5.824;2022-09-24T20:58:10;5.5;;;2.0;;
45382;SDS011;42455;51.660;5.824;2022-09-24T21:03:16;6.0;;;2.0;;
45382;SDS011;42455;51.660;5.824;2022-09-24T21:08:22;5.0;;;2.0;;
45382;SDS011;42455;51.660;5.824;2022-09-24T21:13:28;8.0;;;3.0;;
45382;SDS011;42455;51.660;5.824;2022-09-24T21:18:35;7.0;;;4.0;;
45382;SDS011;42455;51.660;5.824;2022-09-24T21:23:41;5.0;;;3.0;;
45382;SDS011;42455;51.660;5.824;2022-09-24T21:28:48;5.0;;;3.0;;
45382;SDS011;42455;51.660;5.824;2022-09-24T21:33:53;5.0;;;2.0;;
45382;SDS011;42455;51.660;5.824;2022-09-24T21:39:00;5.0;;;3.0;;
45382;SDS011;42455;51.660;5.824;2022-09-24T21:44:06;4.0;;;2.0;;
45382;SDS011;42455;51.660;5.824;2022-09-24T21:49:12;6.5;;;3.0;;
45382;SDS011;42455;51.660;5.824;2022-09-24T21:54:18;7.0;;;3.0;;
45382;SDS011;42455;51.660;5.824;2022-09-24T21:59:24;6.0;;;3.0;;
45382;SDS011;42455;51.660;5.824;2022-09-24T22:04:30;6.0;;;3.0;;
45382;SDS011;42455;51.660;5.824;2022-09-24T22:14:43;5.5;;;3.0;;
45382;SDS011;42455;51.660;5.824;2022-09-24T22:19:49;6.0;;;3.0;;
45382;SDS011;42455;51.660;5.824;2022-09-24T22:24:55;7.0;;;3.0;;
45382;SDS011;42455;51.660;5.824;2022-09-24T22:30:02;5.5;;;3.0;;
45382;SDS011;42455;51.660;5.824;2022-09-24T22:35:08;5.0;;;3.0;;
45382;SDS011;42455;51.660;5.824;2022-09-24T22:40:13;6.0;;;3.0;;
45382;SDS011;42455;51.660;5.824;2022-09-24T22:45:19;5.0;;;3.0;;
45382;SDS011;42455;51.660;5.824;2022-09-24T22:50:25;6.0;;;2.0;;
45382;SDS011;42455;51.660;5.824;2022-09-24T22:55:31;7.0;;;3.0;;
45382;SDS011;42455;51.660;5.824;2022-09-24T23:00:38;6.0;;;2.0;;
45382;SDS011;42455;51.660;5.824;2022-09-24T23:05:44;5.0;;;2.0;;
45382;SDS011;42455;51.660;5.824;2022-09-24T23:10:50;6.0;;;2.0;;
45382;SDS011;42455;51.660;5.824;2022-09-24T23:15:56;6.0;;;2.0;;
45382;SDS011;42455;51.660;5.824;2022-09-24T23:21:03;4.0;;;2.0;;
45382;SDS011;42455;51.660;5.824;2022-09-24T23:26:10;5.0;;;2.0;;
45382;SDS011;42455;51.660;5.824;2022-09-24T23:31:15;3.0;;;2.0;;
45382;SDS011;42455;51.660;5.824;2022-09-24T23:36:22;5.0;;;2.0;;
45382;SDS011;42455;51.660;5.824;2022-09-24T23:41:28;6.0;;;2.0;;
45382;SDS011;42455;51.660;5.824;2022-09-24T23:46:34;5.0;;;2.0;;
45382;SDS011;42455;51.660;5.824;2022-09-24T23:51:40;5.0;;;2.0;;
45382;SDS011;42455;51.660;5.824;2022-09-24T23:56:46;6.0;;;2.0;;
